Darstellungsparameter: Aktuell verwendete Einstellungen:
Skalierung der Graphiken ... ?
xyx+y,   Skalierungsfaktor:      Skalierung: Modus: x, Faktor: 1
Darstellungszeitraum ... ?
Vom - - bis: - -   Zeitraum: 06.08.2016 - 05.09.2016
Min/Max/Avg-Anzeige ... ?
Zeige MMA aktuell
Zeige MMA Monat
Zeige MMA alles
Zeige --A aktuell
Zeige --A Monat
Zeige --A alles
Keine MMA-Anzeige
MMA:
Keine MMA-Graphiken
MMA-Basis: 06.08.2016 - 05.09.2016
Quicknavigation für Darstellung... ?
Tage:      1T, 2T, 3T, 5T -1T -2T -3T -5T +1T +2T +3T +5T
Wochen: 1W, 2W, 3W -1W -2W -3W +1W +2W +3W
Monate: 1M, 3M, 6M -1M -3M -6M +1M +3M +6M
Jahre:    1J, 3J, 5J, 10J -1J -3J -5J -10J +1J +3J +5J +10J
Nutze für die Darstellung ... ?
Originaldaten oder ...
Mittelwerte Minima Maxima auf...
Stundenbasis Tagesbasis Wochenbasis
Monatsbasis Jahresbasis      Datenbasis: Mittelwerte auf Stundenbasis
Darstellen als:
Statistik (Auto) Statistik J:M      Darstellung:
Zur Graphik,    zurück zur Übersicht aller Sensoren.
 
Tabellarische Datenbersicht: ?
 
Sensor: Nr:Datum:Temp:Feuchte:Taupunkt:
Aussen-T/F 1 06-08-2016 00:00:00 14.525 C 94.2500 % 13.61 C
2 06-08-2016 01:00:00 14.34167 C 95.0833 % 13.57 C
3 06-08-2016 02:00:00 14.63333 C 95.9167 % 13.99 C
4 06-08-2016 03:00:00 14.79167 C 96.0000 % 14.16 C
5 06-08-2016 04:00:00 14.35 C 95.0000 % 13.56 C
6 06-08-2016 05:00:00 13.55833 C 95.1667 % 12.8 C
7 06-08-2016 06:00:00 13.24167 C 96.0000 % 12.62 C
8 06-08-2016 07:00:00 13.65833 C 96.3333 % 13.09 C
9 06-08-2016 08:00:00 14.54167 C 96.5833 % 14 C
10 06-08-2016 09:00:00 16 C 92.3333 % 14.76 C
11 06-08-2016 10:00:00 17.75833 C 83.2500 % 14.88 C
12 06-08-2016 11:00:00 19.06667 C 77.5000 % 15.04 C
13 06-08-2016 12:00:00 19.975 C 79.3333 % 16.29 C
14 06-08-2016 13:00:00 19.95833 C 81.3333 % 16.66 C
15 06-08-2016 14:00:00 20.8 C 81.5833 % 17.53 C
16 06-08-2016 15:00:00 20.89167 C 83.1667 % 17.93 C
17 06-08-2016 16:00:00 21.35 C 80.0833 % 17.77 C
18 06-08-2016 17:00:00 21.14167 C 81.0000 % 17.75 C
19 06-08-2016 18:00:00 23.025 C 69.9167 % 17.24 C
20 06-08-2016 19:00:00 22.59167 C 68.7500 % 16.56 C
21 06-08-2016 20:00:00 20.15833 C 76.5833 % 15.91 C
22 06-08-2016 21:00:00 18.275 C 83.7500 % 15.48 C
23 06-08-2016 22:00:00 17.1 C 86.6667 % 14.86 C
24 06-08-2016 23:00:00 16.45 C 87.8333 % 14.43 C
25 07-08-2016 00:00:00 15.35833 C 90.5000 % 13.81 C
Sensor: Nr:Datum:Temp:Feuchte:Taupunkt:
Aussen-T/F 26 07-08-2016 01:00:00 14.4 C 93.0833 % 13.3 C
27 07-08-2016 02:00:00 13.84167 C 94.0000 % 12.89 C
28 07-08-2016 03:00:00 13.41667 C 94.9167 % 12.62 C
29 07-08-2016 04:00:00 12.84167 C 95.0000 % 12.06 C
30 07-08-2016 05:00:00 12.35833 C 95.0000 % 11.58 C
31 07-08-2016 06:00:00 12.05833 C 95.5833 % 11.37 C
32 07-08-2016 07:00:00 12.775 C 96.0000 % 12.15 C
33 07-08-2016 08:00:00 13.3 C 96.0000 % 12.68 C
34 07-08-2016 09:00:00 13.96667 C 96.1667 % 13.37 C
35 07-08-2016 10:00:00 15.79167 C 96.0000 % 15.16 C
36 07-08-2016 11:00:00 19.18333 C 81.3333 % 15.91 C
37 07-08-2016 12:00:00 20.74167 C 75.0833 % 16.17 C
38 07-08-2016 13:00:00 22.08333 C 69.1667 % 16.17 C
39 07-08-2016 14:00:00 23.31667 C 65.3333 % 16.45 C
40 07-08-2016 15:00:00 24.86667 C 61.9167 % 17.07 C
41 07-08-2016 16:00:00 27.71667 C 56.5000 % 18.28 C
42 07-08-2016 17:00:00 28.71667 C 56.3333 % 19.16 C
43 07-08-2016 18:00:00 28.69167 C 58.9167 % 19.86 C
44 07-08-2016 19:00:00 26.925 C 65.4167 % 19.89 C
45 07-08-2016 20:00:00 23.24167 C 73.7500 % 18.29 C
46 07-08-2016 21:00:00 20.73333 C 79.1667 % 16.99 C
47 07-08-2016 22:00:00 19.33333 C 82.9167 % 16.36 C
48 07-08-2016 23:00:00 18.45833 C 86.2500 % 16.12 C
49 08-08-2016 00:00:00 17.64167 C 89.1667 % 15.84 C
50 08-08-2016 01:00:00 17.48333 C 90.1667 % 15.85 C
Sensor: Nr:Datum:Temp:Feuchte:Taupunkt:
Aussen-T/F 51 08-08-2016 02:00:00 17.85833 C 89.0000 % 16.02 C
52 08-08-2016 03:00:00 17.98333 C 88.0000 % 15.97 C
53 08-08-2016 04:00:00 17.13333 C 89.1667 % 15.33 C
54 08-08-2016 05:00:00 16.35833 C 91.1667 % 14.91 C
55 08-08-2016 06:00:00 16.35 C 92.8333 % 15.19 C
56 08-08-2016 07:00:00 17.14167 C 90.9167 % 15.65 C
57 08-08-2016 08:00:00 17.9 C 90.2500 % 16.28 C
58 08-08-2016 09:00:00 19.18333 C 84.8333 % 16.57 C
59 08-08-2016 10:00:00 20.24167 C 79.0833 % 16.5 C
60 08-08-2016 11:00:00 21.55 C 59.1667 % 13.24 C
61 08-08-2016 12:00:00 22.025 C 55.6667 % 12.76 C
62 08-08-2016 13:00:00 22.625 C 58.2500 % 14.01 C
63 08-08-2016 14:00:00 22.64167 C 63.8333 % 15.45 C
64 08-08-2016 15:00:00 22.8 C 62.5833 % 15.29 C
65 08-08-2016 16:00:00 24.60833 C 54.4167 % 14.8 C
66 08-08-2016 17:00:00 21.15 C 66.5000 % 14.67 C
67 08-08-2016 18:00:00 20.24167 C 69.4167 % 14.47 C
68 08-08-2016 19:00:00 19.75833 C 72.4167 % 14.66 C
69 08-08-2016 20:00:00 19.55833 C 72.7500 % 14.54 C
70 08-08-2016 21:00:00 17.09167 C 82.6667 % 14.12 C
71 08-08-2016 22:00:00 16.49167 C 86.0000 % 14.14 C
72 08-08-2016 23:00:00 16.30833 C 85.8333 % 13.93 C
73 09-08-2016 00:00:00 16.725 C 78.5833 % 12.99 C
74 09-08-2016 01:00:00 16.00833 C 80.3333 % 12.63 C
75 09-08-2016 02:00:00 14.95 C 82.6667 % 12.03 C
Sensor: Nr:Datum:Temp:Feuchte:Taupunkt:
Aussen-T/F 76 09-08-2016 03:00:00 14.55 C 84.7500 % 12.01 C
77 09-08-2016 04:00:00 14.4 C 85.2500 % 11.96 C
78 09-08-2016 05:00:00 14.25833 C 85.2500 % 11.82 C
79 09-08-2016 06:00:00 13.8 C 86.6667 % 11.62 C
80 09-08-2016 07:00:00 13.39167 C 88.2500 % 11.49 C
81 09-08-2016 08:00:00 14.13333 C 89.2500 % 12.39 C
82 09-08-2016 09:00:00 15.325 C 83.2500 % 12.5 C
83 09-08-2016 10:00:00 16.475 C 75.7500 % 12.18 C
84 09-08-2016 11:00:00 17.83333 C 66.3333 % 11.48 C
85 09-08-2016 12:00:00 18.575 C 60.9167 % 10.89 C
86 09-08-2016 13:00:00 19.25833 C 53.8333 % 9.68 C
87 09-08-2016 14:00:00 19.1 C 54.7500 % 9.79 C
88 09-08-2016 15:00:00 19.99167 C 53.0000 % 10.13 C
89 09-08-2016 16:00:00 21.55833 C 44.7500 % 9.05 C
90 09-08-2016 17:00:00 20.45833 C 53.3333 % 10.65 C
91 09-08-2016 18:00:00 17.75 C 63.1667 % 10.66 C
92 09-08-2016 19:00:00 17.15 C 61.8333 % 9.78 C
93 09-08-2016 20:00:00 16.525 C 65.0000 % 9.93 C
94 09-08-2016 21:00:00 14.60833 C 76.9167 % 10.61 C
95 09-08-2016 22:00:00 14.26667 C 77.7500 % 10.44 C
96 09-08-2016 23:00:00 13.225 C 82.0833 % 10.24 C
97 10-08-2016 00:00:00 12.16667 C 85.5000 % 9.81 C
98 10-08-2016 01:00:00 11.4 C 86.5000 % 9.23 C
99 10-08-2016 02:00:00 10.36667 C 89.1667 % 8.66 C
100 10-08-2016 03:00:00 9.88333 C 91.1667 % 8.51 C
Sensor: Nr:Datum:Temp:Feuchte:Taupunkt:
Aussen-T/F 101 10-08-2016 04:00:00 10.15833 C 92.8333 % 9.05 C
102 10-08-2016 05:00:00 10.39167 C 92.1667 % 9.18 C
103 10-08-2016 06:00:00 10.31667 C 92.4167 % 9.14 C
104 10-08-2016 07:00:00 10.58333 C 93.0000 % 9.5 C
105 10-08-2016 08:00:00 11.46667 C 91.0000 % 10.05 C
106 10-08-2016 09:00:00 13.05 C 85.8333 % 10.74 C
107 10-08-2016 10:00:00 12.63333 C 84.6667 % 10.12 C
108 10-08-2016 11:00:00 11.64167 C 90.9167 % 10.21 C
109 10-08-2016 12:00:00 12.90833 C 87.6667 % 10.91 C
110 10-08-2016 13:00:00 14.325 C 78.2500 % 10.59 C
111 10-08-2016 14:00:00 15.45 C 71.0000 % 10.22 C
112 10-08-2016 15:00:00 16.58333 C 65.0000 % 9.98 C
113 10-08-2016 16:00:00 17.99167 C 58.4167 % 9.72 C
114 10-08-2016 17:00:00 18.80833 C 49.4167 % 8 C
115 10-08-2016 18:00:00 17.6 C 56.0000 % 8.73 C
116 10-08-2016 19:00:00 15.95 C 64.0833 % 9.17 C
117 10-08-2016 20:00:00 14.6 C 70.5833 % 9.32 C
118 10-08-2016 21:00:00 12.91667 C 76.3333 % 8.86 C
119 10-08-2016 22:00:00 11.23333 C 82.3333 % 8.34 C
120 10-08-2016 23:00:00 10.16667 C 86.3333 % 7.99 C
121 11-08-2016 00:00:00 9.15833 C 89.4167 % 7.51 C
122 11-08-2016 01:00:00 8.475 C 91.5000 % 7.17 C
123 11-08-2016 02:00:00 8.175 C 92.9167 % 7.1 C
124 11-08-2016 03:00:00 7.86667 C 93.4167 % 6.87 C
125 11-08-2016 04:00:00 7.41667 C 94.0000 % 6.52 C
Sensor: Nr:Datum:Temp:Feuchte:Taupunkt:
Aussen-T/F 126 11-08-2016 05:00:00 7.075 C 94.1667 % 6.2 C
127 11-08-2016 06:00:00 6.9 C 95.0000 % 6.16 C
128 11-08-2016 07:00:00 7.16667 C 95.2500 % 6.46 C
129 11-08-2016 08:00:00 8.725 C 95.7500 % 8.09 C
130 11-08-2016 09:00:00 10.54167 C 91.8333 % 9.27 C
131 11-08-2016 10:00:00 12.49167 C 85.5000 % 10.13 C
132 11-08-2016 11:00:00 14.58333 C 72.2500 % 9.65 C
133 11-08-2016 12:00:00 16.14167 C 61.7500 % 8.8 C
134 11-08-2016 13:00:00 17.40833 C 62.0833 % 10.08 C
135 11-08-2016 14:00:00 17.95833 C 60.5833 % 10.23 C
136 11-08-2016 15:00:00 18.3 C 58.7500 % 10.09 C
137 11-08-2016 16:00:00 18.34167 C 60.0000 % 10.45 C
138 11-08-2016 17:00:00 17.36667 C 65.0000 % 10.73 C
139 11-08-2016 18:00:00 15.50833 C 82.4167 % 12.53 C
140 11-08-2016 19:00:00 13.76667 C 90.0000 % 12.16 C
141 11-08-2016 20:00:00 13.08333 C 92.3333 % 11.87 C
142 11-08-2016 21:00:00 12.8 C 93.0833 % 11.71 C
143 11-08-2016 22:00:00 12.89167 C 93.9167 % 11.94 C
144 11-08-2016 23:00:00 13.05833 C 94.0833 % 12.13 C
145 12-08-2016 00:00:00 13.25833 C 94.8333 % 12.45 C
146 12-08-2016 01:00:00 13.39167 C 94.8333 % 12.58 C
147 12-08-2016 02:00:00 13.51667 C 95.0000 % 12.73 C
148 12-08-2016 03:00:00 13.63333 C 95.0000 % 12.85 C
149 12-08-2016 04:00:00 13.775 C 95.0000 % 12.99 C
150 12-08-2016 05:00:00 14.06667 C 94.6667 % 13.22 C
Sensor: Nr:Datum:Temp:Feuchte:Taupunkt:
Aussen-T/F 151 12-08-2016 06:00:00 14.25833 C 94.0833 % 13.32 C
152 12-08-2016 07:00:00 14.575 C 94.0000 % 13.62 C
153 12-08-2016 08:00:00 15.01667 C 94.0000 % 14.06 C
154 12-08-2016 09:00:00 15.60833 C 93.6667 % 14.59 C
155 12-08-2016 10:00:00 16.325 C 92.8333 % 15.16 C
156 12-08-2016 11:00:00 17.60833 C 91.0000 % 16.12 C
157 12-08-2016 12:00:00 19.40833 C 86.7500 % 17.14 C
158 12-08-2016 13:00:00 20.3 C 84.7500 % 17.65 C
159 12-08-2016 14:00:00 21.20833 C 83.0833 % 18.22 C
160 12-08-2016 15:00:00 20.54167 C 87.9167 % 18.47 C
161 12-08-2016 16:00:00 22.025 C 82.8333 % 18.97 C
162 12-08-2016 17:00:00 21.98333 C 83.7500 % 19.11 C
163 12-08-2016 18:00:00 20.28333 C 88.4167 % 18.31 C
164 12-08-2016 19:00:00 19.85833 C 90.0000 % 18.17 C
165 12-08-2016 20:00:00 19.325 C 90.3333 % 17.7 C
166 12-08-2016 21:00:00 18.6 C 91.5000 % 17.19 C
167 12-08-2016 22:00:00 18.5 C 91.4167 % 17.08 C
168 12-08-2016 23:00:00 18.54167 C 90.1667 % 16.9 C
169 13-08-2016 00:00:00 18.31667 C 90.0833 % 16.66 C
170 13-08-2016 01:00:00 17.74167 C 91.4167 % 16.33 C
171 13-08-2016 02:00:00 17.20833 C 92.3333 % 15.95 C
172 13-08-2016 03:00:00 16.49167 C 92.9167 % 15.34 C
173 13-08-2016 04:00:00 15.66667 C 93.9167 % 14.69 C
174 13-08-2016 05:00:00 14.98333 C 94.5833 % 14.12 C
175 13-08-2016 06:00:00 14.66667 C 95.0000 % 13.87 C
Sensor: Nr:Datum:Temp:Feuchte:Taupunkt:
Aussen-T/F 176 13-08-2016 07:00:00 14.58333 C 95.5833 % 13.89 C
177 13-08-2016 08:00:00 15.38333 C 96.0000 % 14.75 C
178 13-08-2016 09:00:00 16.69167 C 95.0000 % 15.89 C
179 13-08-2016 10:00:00 19.175 C 87.6667 % 17.08 C
180 13-08-2016 11:00:00 21.71667 C 79.6667 % 18.05 C
181 13-08-2016 12:00:00 22.69167 C 75.8333 % 18.21 C
182 13-08-2016 13:00:00 23.55833 C 72.1667 % 18.25 C
183 13-08-2016 14:00:00 24.80833 C 67.2500 % 18.32 C
184 13-08-2016 15:00:00 26.13333 C 59.0000 % 17.49 C
185 13-08-2016 16:00:00 28.63333 C 46.1667 % 15.93 C
186 13-08-2016 17:00:00 29.83333 C 43.9167 % 16.23 C
187 13-08-2016 18:00:00 29.64167 C 40.5833 % 14.83 C
188 13-08-2016 19:00:00 26.73333 C 51.0000 % 15.75 C
189 13-08-2016 20:00:00 23.41667 C 68.0833 % 17.19 C
190 13-08-2016 21:00:00 20.30833 C 80.0833 % 16.76 C
191 13-08-2016 22:00:00 18.825 C 85.0833 % 16.26 C
192 13-08-2016 23:00:00 17.81667 C 87.5833 % 15.73 C
193 14-08-2016 00:00:00 16.54167 C 90.5833 % 15 C
194 14-08-2016 01:00:00 15.65 C 92.1667 % 14.38 C
195 14-08-2016 02:00:00 15.08333 C 93.1667 % 13.99 C
196 14-08-2016 03:00:00 14.58333 C 94.0000 % 13.63 C
197 14-08-2016 04:00:00 14.08333 C 94.6667 % 13.24 C
198 14-08-2016 05:00:00 13.9 C 95.0833 % 13.13 C
199 14-08-2016 06:00:00 13.575 C 95.2500 % 12.83 C
200 14-08-2016 07:00:00 14.03333 C 96.0000 % 13.41 C
Sensor: Nr:Datum:Temp:Feuchte:Taupunkt:
Aussen-T/F 201 14-08-2016 08:00:00 14.48333 C 96.0000 % 13.85 C
202 14-08-2016 09:00:00 15.3 C 96.0000 % 14.67 C
203 14-08-2016 10:00:00 16.95833 C 94.3333 % 16.04 C
204 14-08-2016 11:00:00 18.85833 C 90.4167 % 17.26 C
205 14-08-2016 12:00:00 21.15 C 79.0000 % 17.36 C
206 14-08-2016 13:00:00 22.61667 C 73.2500 % 17.58 C
207 14-08-2016 14:00:00 23.79167 C 66.4167 % 17.16 C
208 14-08-2016 15:00:00 24.63333 C 62.8333 % 17.08 C
209 14-08-2016 16:00:00 26.125 C 56.2500 % 16.73 C
210 14-08-2016 17:00:00 26.24167 C 53.1667 % 15.95 C
211 14-08-2016 18:00:00 25.775 C 52.1667 % 15.23 C
212 14-08-2016 19:00:00 24.31667 C 57.4167 % 15.37 C
213 14-08-2016 20:00:00 23.31667 C 62.0833 % 15.65 C
214 14-08-2016 21:00:00 20.94167 C 73.2500 % 15.97 C
215 14-08-2016 22:00:00 18.55833 C 82.5833 % 15.54 C
216 14-08-2016 23:00:00 17.625 C 86.2500 % 15.3 C
217 15-08-2016 00:00:00 17.49167 C 87.1667 % 15.33 C
218 15-08-2016 01:00:00 16.64167 C 87.1667 % 14.5 C
219 15-08-2016 02:00:00 15.73333 C 89.0000 % 13.93 C
220 15-08-2016 03:00:00 15.15833 C 90.7500 % 13.66 C
221 15-08-2016 04:00:00 14.73333 C 92.0000 % 13.45 C
222 15-08-2016 05:00:00 14.275 C 92.9167 % 13.15 C
223 15-08-2016 06:00:00 14.15833 C 93.6667 % 13.15 C
224 15-08-2016 07:00:00 14.69167 C 93.4167 % 13.64 C
225 15-08-2016 08:00:00 14.73333 C 92.7500 % 13.57 C
Sensor: Nr:Datum:Temp:Feuchte:Taupunkt:
Aussen-T/F 226 15-08-2016 09:00:00 15.11667 C 93.0000 % 13.99 C
227 15-08-2016 10:00:00 16.19167 C 91.8333 % 14.86 C
228 15-08-2016 11:00:00 18.34167 C 82.5833 % 15.33 C
229 15-08-2016 12:00:00 20.65 C 71.7500 % 15.37 C
230 15-08-2016 13:00:00 22.075 C 65.4167 % 15.29 C
231 15-08-2016 14:00:00 23.13333 C 61.4167 % 15.31 C
232 15-08-2016 15:00:00 24.54167 C 57.1667 % 15.51 C
233 15-08-2016 16:00:00 25.625 C 54.7500 % 15.84 C
234 15-08-2016 17:00:00 26.375 C 51.7500 % 15.65 C
235 15-08-2016 18:00:00 25.35 C 53.7500 % 15.3 C
236 15-08-2016 19:00:00 24.9 C 55.0833 % 15.26 C
237 15-08-2016 20:00:00 21.88333 C 69.0833 % 15.96 C
238 15-08-2016 21:00:00 18.65 C 79.5000 % 15.03 C
239 15-08-2016 22:00:00 17.79167 C 81.8333 % 14.65 C
240 15-08-2016 23:00:00 16.66667 C 84.8333 % 14.1 C
241 16-08-2016 00:00:00 15.29167 C 86.0833 % 12.98 C
242 16-08-2016 01:00:00 14.44167 C 87.4167 % 12.38 C
243 16-08-2016 02:00:00 13.84167 C 88.4167 % 11.96 C
244 16-08-2016 03:00:00 13.4 C 89.0000 % 11.63 C
245 16-08-2016 04:00:00 12.74167 C 90.0000 % 11.14 C
246 16-08-2016 05:00:00 11.975 C 91.5000 % 10.64 C
247 16-08-2016 06:00:00 11.475 C 92.5833 % 10.32 C
248 16-08-2016 07:00:00 11.625 C 93.6667 % 10.64 C
249 16-08-2016 08:00:00 12.45 C 94.2500 % 11.55 C
250 16-08-2016 09:00:00 14.00833 C 94.3333 % 13.11 C
Sensor: Nr:Datum:Temp:Feuchte:Taupunkt:
Aussen-T/F 251 16-08-2016 10:00:00 16.325 C 86.2500 % 14.02 C
252 16-08-2016 11:00:00 17.91667 C 79.7500 % 14.37 C
253 16-08-2016 12:00:00 19.825 C 72.3333 % 14.7 C
254 16-08-2016 13:00:00 21.425 C 66.0833 % 14.83 C
255 16-08-2016 14:00:00 22.89167 C 59.0833 % 14.48 C
256 16-08-2016 15:00:00 24.21667 C 54.7500 % 14.54 C
257 16-08-2016 16:00:00 26.4 C 47.0833 % 14.21 C
258 16-08-2016 17:00:00 27.59167 C 36.5833 % 11.42 C
259 16-08-2016 18:00:00 27.275 C 40.5833 % 12.72 C
260 16-08-2016 19:00:00 26 C 45.6667 % 13.38 C
261 16-08-2016 20:00:00 21.36667 C 67.5000 % 15.1 C
262 16-08-2016 21:00:00 18.55 C 74.2500 % 13.88 C
263 16-08-2016 22:00:00 16.94167 C 81.5000 % 13.76 C
264 16-08-2016 23:00:00 15.89167 C 85.2500 % 13.42 C
265 17-08-2016 00:00:00 14.825 C 87.8333 % 12.83 C
266 17-08-2016 01:00:00 14.20833 C 89.0000 % 12.42 C
267 17-08-2016 02:00:00 13.85 C 88.0000 % 11.9 C
268 17-08-2016 03:00:00 13.675 C 87.6667 % 11.67 C
269 17-08-2016 04:00:00 13.35 C 87.0000 % 11.23 C
270 17-08-2016 05:00:00 12.89167 C 87.7500 % 10.91 C
271 17-08-2016 06:00:00 12.11667 C 90.4167 % 10.6 C
272 17-08-2016 07:00:00 12.04167 C 92.4167 % 10.85 C
273 17-08-2016 08:00:00 12.675 C 92.7500 % 11.53 C
274 17-08-2016 09:00:00 13.775 C 91.3333 % 12.39 C
275 17-08-2016 10:00:00 15.84167 C 86.4167 % 13.58 C
Sensor: Nr:Datum:Temp:Feuchte:Taupunkt:
Aussen-T/F 276 17-08-2016 11:00:00 18.75 C 74.0000 % 14.02 C
277 17-08-2016 12:00:00 20.98333 C 65.2500 % 14.22 C
278 17-08-2016 13:00:00 22.25 C 59.5000 % 13.99 C
279 17-08-2016 14:00:00 23.3 C 53.5833 % 13.35 C
280 17-08-2016 15:00:00 24.66667 C 47.6667 % 12.82 C
281 17-08-2016 16:00:00 26.18333 C 43.9167 % 12.94 C
282 17-08-2016 17:00:00 27.33333 C 41.0833 % 12.96 C
283 17-08-2016 18:00:00 27.275 C 46.5833 % 14.84 C
284 17-08-2016 19:00:00 24.63333 C 59.0000 % 16.09 C
285 17-08-2016 20:00:00 20.76667 C 66.8333 % 14.38 C
286 17-08-2016 21:00:00 18.225 C 68.5833 % 12.35 C
287 17-08-2016 22:00:00 16.80833 C 74.0833 % 12.17 C
288 17-08-2016 23:00:00 15.09167 C 80.4167 % 11.75 C
289 18-08-2016 00:00:00 14.03333 C 83.1667 % 11.22 C
290 18-08-2016 01:00:00 13.35833 C 86.0833 % 11.08 C
291 18-08-2016 02:00:00 12.65833 C 88.7500 % 10.85 C
292 18-08-2016 03:00:00 12.00833 C 90.0833 % 10.43 C
293 18-08-2016 04:00:00 11.50833 C 90.0000 % 9.93 C
294 18-08-2016 05:00:00 11.01667 C 90.5000 % 9.52 C
295 18-08-2016 06:00:00 10.81667 C 92.1667 % 9.6 C
296 18-08-2016 07:00:00 10.93333 C 93.0000 % 9.85 C
297 18-08-2016 08:00:00 11.95833 C 93.6667 % 10.97 C
298 18-08-2016 09:00:00 13.45 C 92.0833 % 12.19 C
299 18-08-2016 10:00:00 15.225 C 90.0833 % 13.61 C
300 18-08-2016 11:00:00 17.875 C 83.0000 % 14.95 C
Sensor: Nr:Datum:Temp:Feuchte:Taupunkt:
Aussen-T/F 301 18-08-2016 12:00:00 20.38333 C 77.1667 % 16.25 C
302 18-08-2016 13:00:00 22.7 C 72.6667 % 17.54 C
303 18-08-2016 14:00:00 24.69167 C 59.9167 % 16.38 C
304 18-08-2016 15:00:00 24.64167 C 69.0833 % 18.59 C
305 18-08-2016 16:00:00 25 C 61.5833 % 17.11 C
306 18-08-2016 17:00:00 23.73333 C 70.6667 % 18.09 C
307 18-08-2016 18:00:00 21.51667 C 76.7500 % 17.26 C
308 18-08-2016 19:00:00 20.16667 C 78.4167 % 16.29 C
309 18-08-2016 20:00:00 19.61667 C 79.6667 % 16.01 C
310 18-08-2016 21:00:00 19.08333 C 81.2500 % 15.8 C
311 18-08-2016 22:00:00 18.63333 C 85.5000 % 16.15 C
312 18-08-2016 23:00:00 18.45 C 86.5833 % 16.17 C
313 19-08-2016 00:00:00 17.9 C 85.9167 % 15.51 C
314 19-08-2016 01:00:00 16.3 C 90.0833 % 14.67 C
315 19-08-2016 02:00:00 15.45833 C 92.6667 % 14.28 C
316 19-08-2016 03:00:00 15.20833 C 93.4167 % 14.15 C
317 19-08-2016 04:00:00 14.78333 C 94.1667 % 13.85 C
318 19-08-2016 05:00:00 14.84167 C 95.0000 % 14.05 C
319 19-08-2016 06:00:00 14.7 C 95.0000 % 13.91 C
320 19-08-2016 07:00:00 15.34167 C 95.2500 % 14.59 C
321 19-08-2016 08:00:00 16.33333 C 94.1667 % 15.39 C
322 19-08-2016 09:00:00 17.35833 C 90.4167 % 15.77 C
323 19-08-2016 10:00:00 17.95833 C 89.4167 % 16.19 C
324 19-08-2016 11:00:00 19.59167 C 86.0000 % 17.19 C
325 19-08-2016 12:00:00 22.08333 C 73.7500 % 17.18 C
Sensor: Nr:Datum:Temp:Feuchte:Taupunkt:
Aussen-T/F 326 19-08-2016 13:00:00 23.73333 C 64.5833 % 16.66 C
327 19-08-2016 14:00:00 24.69167 C 64.0833 % 17.44 C
328 19-08-2016 15:00:00 25.06667 C 64.1667 % 17.82 C
329 19-08-2016 16:00:00 24.35 C 68.3333 % 18.14 C
330 19-08-2016 17:00:00 24.26667 C 73.0000 % 19.12 C
331 19-08-2016 18:00:00 23.91667 C 74.7500 % 19.16 C
332 19-08-2016 19:00:00 21.60833 C 80.3333 % 18.08 C
333 19-08-2016 20:00:00 20.625 C 83.4167 % 17.71 C
334 19-08-2016 21:00:00 19.93333 C 85.9167 % 17.51 C
335 19-08-2016 22:00:00 19.5 C 85.1667 % 16.94 C
336 19-08-2016 23:00:00 19.13333 C 85.4167 % 16.63 C
337 20-08-2016 00:00:00 18.69167 C 87.8333 % 16.63 C
338 20-08-2016 01:00:00 17.98333 C 90.8333 % 16.46 C
339 20-08-2016 02:00:00 17.675 C 91.5000 % 16.27 C
340 20-08-2016 03:00:00 17.325 C 91.1667 % 15.87 C
341 20-08-2016 04:00:00 17.125 C 91.5833 % 15.74 C
342 20-08-2016 05:00:00 16.26667 C 91.4167 % 14.87 C
343 20-08-2016 06:00:00 16 C 93.4167 % 14.94 C
344 20-08-2016 07:00:00 16.65 C 94.0000 % 15.68 C
345 20-08-2016 08:00:00 17.5 C 93.1667 % 16.38 C
346 20-08-2016 09:00:00 18.93333 C 87.1667 % 16.75 C
347 20-08-2016 10:00:00 19.69167 C 84.2500 % 16.96 C
348 20-08-2016 11:00:00 19.75 C 84.0833 % 16.98 C
349 20-08-2016 12:00:00 20.25833 C 80.6667 % 16.83 C
350 20-08-2016 13:00:00 20.21667 C 78.8333 % 16.42 C
Sensor: Nr:Datum:Temp:Feuchte:Taupunkt:
Aussen-T/F 351 20-08-2016 14:00:00 19.45 C 79.0000 % 15.71 C
352 20-08-2016 15:00:00 18.95 C 81.2500 % 15.67 C
353 20-08-2016 16:00:00 20.53333 C 73.9167 % 15.72 C
354 20-08-2016 17:00:00 23.075 C 63.7500 % 15.83 C
355 20-08-2016 18:00:00 24.39167 C 57.8333 % 15.55 C
356 20-08-2016 19:00:00 22.99167 C 63.6667 % 15.74 C
357 20-08-2016 20:00:00 19.50833 C 77.5000 % 15.47 C
358 20-08-2016 21:00:00 17.20833 C 85.0000 % 14.67 C
359 20-08-2016 22:00:00 16.30833 C 86.5833 % 14.07 C
360 20-08-2016 23:00:00 15.85833 C 87.6667 % 13.82 C
361 21-08-2016 00:00:00 15.33333 C 89.9167 % 13.69 C
362 21-08-2016 01:00:00 14.95833 C 91.5000 % 13.59 C
363 21-08-2016 02:00:00 14.86667 C 92.4167 % 13.65 C
364 21-08-2016 03:00:00 14.725 C 92.1667 % 13.47 C
365 21-08-2016 04:00:00 14.94167 C 90.8333 % 13.46 C
366 21-08-2016 05:00:00 14.05 C 92.4167 % 12.84 C
367 21-08-2016 06:00:00 13.8 C 94.0000 % 12.85 C
368 21-08-2016 07:00:00 14.06667 C 94.2500 % 13.16 C
369 21-08-2016 08:00:00 15.25833 C 88.5833 % 13.39 C
370 21-08-2016 09:00:00 16.33333 C 82.5833 % 13.36 C
371 21-08-2016 10:00:00 17 C 78.8333 % 13.3 C
372 21-08-2016 11:00:00 17.86667 C 75.7500 % 13.53 C
373 21-08-2016 12:00:00 18.20833 C 72.9167 % 13.27 C
374 21-08-2016 13:00:00 19.00833 C 71.2500 % 13.69 C
375 21-08-2016 14:00:00 19.84167 C 68.5000 % 13.88 C
Sensor: Nr:Datum:Temp:Feuchte:Taupunkt:
Aussen-T/F 376 21-08-2016 15:00:00 19.70833 C 68.7500 % 13.81 C
377 21-08-2016 16:00:00 20.33333 C 63.9167 % 13.28 C
378 21-08-2016 17:00:00 20.66667 C 65.0833 % 13.88 C
379 21-08-2016 18:00:00 20.30833 C 65.7500 % 13.69 C
380 21-08-2016 19:00:00 19.05833 C 71.6667 % 13.82 C
381 21-08-2016 20:00:00 18.16667 C 76.3333 % 13.94 C
382 21-08-2016 21:00:00 17.45833 C 79.1667 % 13.81 C
383 21-08-2016 22:00:00 17.03333 C 80.1667 % 13.59 C
384 21-08-2016 23:00:00 16.775 C 81.9167 % 13.67 C
385 22-08-2016 00:00:00 16.5 C 83.0000 % 13.6 C
386 22-08-2016 01:00:00 15.81667 C 84.2500 % 13.17 C
387 22-08-2016 02:00:00 14.35833 C 88.1667 % 12.43 C
388 22-08-2016 03:00:00 13.45 C 91.5833 % 12.11 C
389 22-08-2016 04:00:00 12.98333 C 92.7500 % 11.84 C
390 22-08-2016 05:00:00 12.94167 C 93.8333 % 11.97 C
391 22-08-2016 06:00:00 13.08333 C 94.0000 % 12.14 C
392 22-08-2016 07:00:00 13.475 C 94.1667 % 12.56 C
393 22-08-2016 08:00:00 14.475 C 93.0833 % 13.37 C
394 22-08-2016 09:00:00 15.725 C 85.9167 % 13.38 C
395 22-08-2016 10:00:00 15.975 C 88.4167 % 14.06 C
396 22-08-2016 11:00:00 16.28333 C 90.8333 % 14.78 C
397 22-08-2016 12:00:00 17.825 C 84.8333 % 15.24 C
398 22-08-2016 13:00:00 18.325 C 82.0833 % 15.22 C
399 22-08-2016 14:00:00 19.65833 C 79.1667 % 15.95 C
400 22-08-2016 15:00:00 21.46667 C 74.2500 % 16.69 C
Sensor: Nr:Datum:Temp:Feuchte:Taupunkt:
Aussen-T/F 401 22-08-2016 16:00:00 21.85833 C 73.6667 % 16.94 C
402 22-08-2016 17:00:00 22.61667 C 72.2500 % 17.37 C
403 22-08-2016 18:00:00 23.48333 C 68.7500 % 17.41 C
404 22-08-2016 19:00:00 22.825 C 72.0833 % 17.53 C
405 22-08-2016 20:00:00 20.36667 C 77.0000 % 16.2 C
406 22-08-2016 21:00:00 18.46667 C 81.7500 % 15.29 C
407 22-08-2016 22:00:00 17.29167 C 84.8333 % 14.72 C
408 22-08-2016 23:00:00 16.14167 C 87.3333 % 14.04 C
409 23-08-2016 00:00:00 15.14167 C 89.4167 % 13.41 C
410 23-08-2016 01:00:00 14.38333 C 91.4167 % 13 C
411 23-08-2016 02:00:00 13.85 C 92.5833 % 12.67 C
412 23-08-2016 03:00:00 13.31667 C 93.6667 % 12.32 C
413 23-08-2016 04:00:00 12.90833 C 94.0000 % 11.97 C
414 23-08-2016 05:00:00 12.64167 C 94.5833 % 11.8 C
415 23-08-2016 06:00:00 12.31667 C 95.0000 % 11.54 C
416 23-08-2016 07:00:00 12.44167 C 95.2500 % 11.7 C
417 23-08-2016 08:00:00 12.95 C 95.9167 % 12.31 C
418 23-08-2016 09:00:00 13.95833 C 96.0000 % 13.33 C
419 23-08-2016 10:00:00 15.55 C 95.8333 % 14.89 C
420 23-08-2016 11:00:00 18.18333 C 91.4167 % 16.76 C
421 23-08-2016 12:00:00 20.75 C 84.0833 % 17.96 C
422 23-08-2016 13:00:00 23.325 C 69.7500 % 17.49 C
423 23-08-2016 14:00:00 25.775 C 53.6667 % 15.67 C
424 23-08-2016 15:00:00 27.01667 C 46.1667 % 14.47 C
425 23-08-2016 16:00:00 28.84167 C 39.2500 % 13.6 C
Sensor: Nr:Datum:Temp:Feuchte:Taupunkt:
Aussen-T/F 426 23-08-2016 17:00:00 30.18333 C 40.4167 % 15.25 C
427 23-08-2016 18:00:00 28.41667 C 53.0833 % 17.94 C
428 23-08-2016 19:00:00 25.825 C 58.5833 % 17.09 C
429 23-08-2016 20:00:00 22.75 C 66.6667 % 16.23 C
430 23-08-2016 21:00:00 20.86667 C 72.4167 % 15.72 C
431 23-08-2016 22:00:00 19.45833 C 75.4167 % 15 C
432 23-08-2016 23:00:00 17.35 C 81.9167 % 14.23 C
433 24-08-2016 00:00:00 16.125 C 85.4167 % 13.68 C
434 24-08-2016 01:00:00 15.25 C 87.5000 % 13.19 C
435 24-08-2016 02:00:00 14.63333 C 89.0833 % 12.86 C
436 24-08-2016 03:00:00 13.94167 C 90.3333 % 12.39 C
437 24-08-2016 04:00:00 13.325 C 91.8333 % 12.03 C
438 24-08-2016 05:00:00 13.05 C 93.2500 % 11.99 C
439 24-08-2016 06:00:00 12.76667 C 93.5833 % 11.76 C
440 24-08-2016 07:00:00 12.76667 C 94.5833 % 11.92 C
441 24-08-2016 08:00:00 13.39167 C 95.1667 % 12.63 C
442 24-08-2016 09:00:00 14.56667 C 95.7500 % 13.9 C
443 24-08-2016 10:00:00 16.70833 C 94.5000 % 15.82 C
444 24-08-2016 11:00:00 20.33333 C 86.8333 % 18.07 C
445 24-08-2016 12:00:00 24.14167 C 70.5000 % 18.44 C
446 24-08-2016 13:00:00 26.06667 C 60.9167 % 17.94 C
447 24-08-2016 14:00:00 27.81667 C 52.9167 % 17.33 C
448 24-08-2016 15:00:00 29.04167 C 51.3333 % 17.98 C
449 24-08-2016 16:00:00 30.88333 C 48.2500 % 18.68 C
450 24-08-2016 17:00:00 32.875 C 45.0833 % 19.39 C
Sensor: Nr:Datum:Temp:Feuchte:Taupunkt:
Aussen-T/F 451 24-08-2016 18:00:00 31.16667 C 52.3333 % 20.24 C
452 24-08-2016 19:00:00 27.79167 C 61.0833 % 19.6 C
453 24-08-2016 20:00:00 24.325 C 70.7500 % 18.67 C
454 24-08-2016 21:00:00 22.09167 C 77.9167 % 18.06 C
455 24-08-2016 22:00:00 20.55 C 82.8333 % 17.53 C
456 24-08-2016 23:00:00 19.49167 C 85.2500 % 16.95 C
457 25-08-2016 00:00:00 18.44167 C 87.4167 % 16.31 C
458 25-08-2016 01:00:00 17.5 C 89.5833 % 15.77 C
459 25-08-2016 02:00:00 16.80833 C 90.5833 % 15.26 C
460 25-08-2016 03:00:00 16.20833 C 91.8333 % 14.88 C
461 25-08-2016 04:00:00 15.625 C 92.9167 % 14.48 C
462 25-08-2016 05:00:00 15.04167 C 93.5833 % 14.02 C
463 25-08-2016 06:00:00 14.65 C 94.1667 % 13.72 C
464 25-08-2016 07:00:00 14.75 C 95.0000 % 13.96 C
465 25-08-2016 08:00:00 15.09167 C 95.2500 % 14.34 C
466 25-08-2016 09:00:00 16.225 C 96.0000 % 15.59 C
467 25-08-2016 10:00:00 18.25 C 94.1667 % 17.3 C
468 25-08-2016 11:00:00 21.425 C 85.9167 % 18.97 C
469 25-08-2016 12:00:00 24.05833 C 75.7500 % 19.51 C
470 25-08-2016 13:00:00 26.5 C 57.8333 % 17.52 C
471 25-08-2016 14:00:00 28.275 C 51.1667 % 17.22 C
472 25-08-2016 15:00:00 29.86667 C 45.4167 % 16.79 C
473 25-08-2016 16:00:00 31.46667 C 45.4167 % 18.24 C
474 25-08-2016 17:00:00 33.08333 C 46.2500 % 19.99 C
475 25-08-2016 18:00:00 30.70833 C 52.8333 % 19.97 C
Sensor: Nr:Datum:Temp:Feuchte:Taupunkt:
Aussen-T/F 476 25-08-2016 19:00:00 27.66667 C 58.3333 % 18.74 C
477 25-08-2016 20:00:00 24.19167 C 64.7500 % 17.14 C
478 25-08-2016 21:00:00 22.81667 C 66.6667 % 16.29 C
479 25-08-2016 22:00:00 20.675 C 76.5000 % 16.4 C
480 25-08-2016 23:00:00 19.05 C 81.7500 % 15.86 C
481 26-08-2016 00:00:00 17.90833 C 85.5833 % 15.46 C
482 26-08-2016 01:00:00 16.95 C 87.7500 % 14.91 C
483 26-08-2016 02:00:00 16.31667 C 89.6667 % 14.62 C
484 26-08-2016 03:00:00 16.03333 C 91.1667 % 14.59 C
485 26-08-2016 04:00:00 15.70833 C 91.9167 % 14.4 C
486 26-08-2016 05:00:00 15.325 C 93.0000 % 14.2 C
487 26-08-2016 06:00:00 15.10833 C 93.5833 % 14.08 C
488 26-08-2016 07:00:00 15.06667 C 94.0000 % 14.11 C
489 26-08-2016 08:00:00 15.65833 C 95.0000 % 14.86 C
490 26-08-2016 09:00:00 16.75833 C 94.3333 % 15.84 C
491 26-08-2016 10:00:00 18.725 C 91.3333 % 17.28 C
492 26-08-2016 11:00:00 22.025 C 85.3333 % 19.45 C
493 26-08-2016 12:00:00 24.90833 C 78.3333 % 20.87 C
494 26-08-2016 13:00:00 27.51667 C 67.7500 % 21.02 C
495 26-08-2016 14:00:00 29.76667 C 55.9167 % 20.02 C
496 26-08-2016 15:00:00 31.575 C 47.8333 % 19.17 C
497 26-08-2016 16:00:00 33.66667 C 42.6667 % 19.22 C
498 26-08-2016 17:00:00 34.125 C 47.0000 % 21.2 C
499 26-08-2016 18:00:00 31.775 C 54.1667 % 21.36 C
500 26-08-2016 19:00:00 29.075 C 60.6667 % 20.69 C
Sensor: Nr:Datum:Temp:Feuchte:Taupunkt:
Aussen-T/F 501 26-08-2016 20:00:00 26.28333 C 66.0000 % 19.42 C
502 26-08-2016 21:00:00 24.525 C 72.8333 % 19.33 C
503 26-08-2016 22:00:00 23.51667 C 77.0833 % 19.27 C
504 26-08-2016 23:00:00 22.575 C 81.5833 % 19.26 C
505 27-08-2016 00:00:00 21.54167 C 86.1667 % 19.13 C
506 27-08-2016 01:00:00 20.95 C 88.5833 % 18.99 C
507 27-08-2016 02:00:00 20.51667 C 90.4167 % 18.89 C
508 27-08-2016 03:00:00 19.94167 C 91.6667 % 18.54 C
509 27-08-2016 04:00:00 19.65 C 93.0000 % 18.49 C
510 27-08-2016 05:00:00 18.925 C 93.5000 % 17.85 C
511 27-08-2016 06:00:00 18.49167 C 94.4167 % 17.58 C
512 27-08-2016 07:00:00 18.275 C 94.8333 % 17.43 C
513 27-08-2016 08:00:00 18.8 C 95.5833 % 18.08 C
514 27-08-2016 09:00:00 19.875 C 96.0000 % 19.22 C
515 27-08-2016 10:00:00 21.025 C 94.5833 % 20.12 C
516 27-08-2016 11:00:00 23.125 C 89.0000 % 21.21 C
517 27-08-2016 12:00:00 25.4 C 82.6667 % 22.23 C
518 27-08-2016 13:00:00 27.59167 C 77.8333 % 23.37 C
519 27-08-2016 14:00:00 30.05833 C 59.5833 % 21.32 C
520 27-08-2016 15:00:00 31.275 C 52.1667 % 20.29 C
521 27-08-2016 16:00:00 32.64167 C 49.6667 % 20.75 C
522 27-08-2016 17:00:00 34.55 C 47.3333 % 21.7 C
523 27-08-2016 18:00:00 30.58333 C 56.5000 % 20.95 C
524 27-08-2016 19:00:00 28.20833 C 60.7500 % 19.9 C
525 27-08-2016 20:00:00 24.93333 C 69.8333 % 19.04 C
Sensor: Nr:Datum:Temp:Feuchte:Taupunkt:
Aussen-T/F 526 27-08-2016 21:00:00 24.25833 C 70.4167 % 18.53 C
527 27-08-2016 22:00:00 23 C 75.1667 % 18.36 C
528 27-08-2016 23:00:00 21.55 C 80.7500 % 18.1 C
529 28-08-2016 00:00:00 21.1 C 82.8333 % 18.07 C
530 28-08-2016 01:00:00 20.51667 C 84.4167 % 17.8 C
531 28-08-2016 02:00:00 19.71667 C 86.4167 % 17.38 C
532 28-08-2016 03:00:00 19.49167 C 87.3333 % 17.33 C
533 28-08-2016 04:00:00 18.93333 C 87.7500 % 16.86 C
534 28-08-2016 05:00:00 18.84167 C 88.4167 % 16.89 C
535 28-08-2016 06:00:00 18.25833 C 90.0000 % 16.59 C
536 28-08-2016 07:00:00 17.94167 C 91.1667 % 16.48 C
537 28-08-2016 08:00:00 18.175 C 92.1667 % 16.88 C
538 28-08-2016 09:00:00 19.14167 C 92.0000 % 17.81 C
539 28-08-2016 10:00:00 21.1 C 89.3333 % 19.28 C
540 28-08-2016 11:00:00 24.48333 C 79.3333 % 20.67 C
541 28-08-2016 12:00:00 27.45 C 64.5833 % 20.18 C
542 28-08-2016 13:00:00 29.94167 C 51.5833 % 18.88 C
543 28-08-2016 14:00:00 31.10833 C 46.5833 % 18.32 C
544 28-08-2016 15:00:00 31.55833 C 46.0833 % 18.55 C
545 28-08-2016 16:00:00 29.51667 C 47.4167 % 17.15 C
546 28-08-2016 17:00:00 28.34167 C 47.8333 % 16.22 C
547 28-08-2016 18:00:00 27.40833 C 47.6667 % 15.32 C
548 28-08-2016 19:00:00 26.14167 C 59.3333 % 17.59 C
549 28-08-2016 20:00:00 24.50833 C 65.9167 % 17.72 C
550 28-08-2016 21:00:00 23.5 C 68.5000 % 17.37 C
Sensor: Nr:Datum:Temp:Feuchte:Taupunkt:
Aussen-T/F 551 28-08-2016 22:00:00 23.65833 C 64.3333 % 16.53 C
552 28-08-2016 23:00:00 22.40833 C 68.5833 % 16.35 C
553 29-08-2016 00:00:00 19.95 C 77.0000 % 15.8 C
554 29-08-2016 01:00:00 19.55833 C 77.0833 % 15.44 C
555 29-08-2016 02:00:00 18.575 C 79.1667 % 14.9 C
556 29-08-2016 03:00:00 17.825 C 81.2500 % 14.57 C
557 29-08-2016 04:00:00 17.31667 C 82.1667 % 14.25 C
558 29-08-2016 05:00:00 15.975 C 85.3333 % 13.52 C
559 29-08-2016 06:00:00 14.89167 C 87.9167 % 12.91 C
560 29-08-2016 07:00:00 15.575 C 89.6667 % 13.88 C
561 29-08-2016 08:00:00 16.81667 C 87.0000 % 14.64 C
562 29-08-2016 09:00:00 18.90833 C 81.0833 % 15.59 C
563 29-08-2016 10:00:00 20.2 C 75.3333 % 15.7 C
564 29-08-2016 11:00:00 20.9 C 71.4167 % 15.54 C
565 29-08-2016 12:00:00 21.56667 C 68.6667 % 15.56 C
566 29-08-2016 13:00:00 22.01667 C 68.3333 % 15.92 C
567 29-08-2016 14:00:00 22.16667 C 68.3333 % 16.06 C
568 29-08-2016 15:00:00 22.54167 C 64.2500 % 15.45 C
569 29-08-2016 16:00:00 22.25 C 66.2500 % 15.65 C
570 29-08-2016 17:00:00 20.5 C 75.0833 % 15.93 C
571 29-08-2016 18:00:00 19.69167 C 78.5000 % 15.85 C
572 29-08-2016 19:00:00 18.76667 C 85.4167 % 16.27 C
573 29-08-2016 20:00:00 17.66667 C 87.5833 % 15.58 C
574 29-08-2016 21:00:00 17.3 C 88.9167 % 15.46 C
575 29-08-2016 22:00:00 17.6 C 88.0000 % 15.59 C
Sensor: Nr:Datum:Temp:Feuchte:Taupunkt:
Aussen-T/F 576 29-08-2016 23:00:00 17.2 C 87.8333 % 15.17 C
577 30-08-2016 00:00:00 16.50833 C 89.2500 % 14.73 C
578 30-08-2016 01:00:00 16.05833 C 90.4167 % 14.49 C
579 30-08-2016 02:00:00 15.43333 C 92.1667 % 14.17 C
580 30-08-2016 03:00:00 14.55 C 92.8333 % 13.4 C
581 30-08-2016 04:00:00 13.96667 C 93.7500 % 12.98 C
582 30-08-2016 05:00:00 13.59167 C 94.5833 % 12.74 C
583 30-08-2016 06:00:00 13.9 C 95.3333 % 13.17 C
584 30-08-2016 07:00:00 14.45 C 95.8333 % 13.79 C
585 30-08-2016 08:00:00 14.76667 C 96.0000 % 14.14 C
586 30-08-2016 09:00:00 15.425 C 95.2500 % 14.67 C
587 30-08-2016 10:00:00 16.3 C 92.1667 % 15.03 C
588 30-08-2016 11:00:00 17.325 C 89.3333 % 15.55 C
589 30-08-2016 12:00:00 18.89167 C 78.5833 % 15.09 C
590 30-08-2016 13:00:00 20.64167 C 66.3333 % 14.15 C
591 30-08-2016 14:00:00 21.75833 C 57.9167 % 13.11 C
592 30-08-2016 15:00:00 22.69167 C 51.5000 % 12.19 C
593 30-08-2016 16:00:00 24.4 C 46.6667 % 12.25 C
594 30-08-2016 17:00:00 25.80833 C 42.0833 % 11.96 C
595 30-08-2016 18:00:00 26.1 C 40.6667 % 11.7 C
596 30-08-2016 19:00:00 23.4 C 53.7500 % 13.49 C
597 30-08-2016 20:00:00 19.1 C 60.8333 % 11.37 C
598 30-08-2016 21:00:00 17.55833 C 64.9167 % 10.89 C
599 30-08-2016 22:00:00 16.70833 C 67.0000 % 10.56 C
600 30-08-2016 23:00:00 15.48333 C 71.8333 % 10.43 C
Sensor: Nr:Datum:Temp:Feuchte:Taupunkt:
Aussen-T/F 601 31-08-2016 00:00:00 14.03333 C 78.0000 % 10.26 C
602 31-08-2016 01:00:00 13.1 C 81.5000 % 10.01 C
603 31-08-2016 02:00:00 12.25 C 84.4167 % 9.7 C
604 31-08-2016 03:00:00 11.54167 C 86.9167 % 9.44 C
605 31-08-2016 04:00:00 11.125 C 88.6667 % 9.33 C
606 31-08-2016 05:00:00 10.75833 C 90.0000 % 9.19 C
607 31-08-2016 06:00:00 10.41667 C 91.2500 % 9.05 C
608 31-08-2016 07:00:00 10.55833 C 92.0000 % 9.31 C
609 31-08-2016 08:00:00 11.525 C 92.8333 % 10.41 C
610 31-08-2016 09:00:00 13.55 C 91.5000 % 12.19 C
611 31-08-2016 10:00:00 15.825 C 86.3333 % 13.55 C
612 31-08-2016 11:00:00 18.10833 C 81.2500 % 14.85 C
613 31-08-2016 12:00:00 21.29167 C 69.4167 % 15.47 C
614 31-08-2016 13:00:00 23.5 C 60.1667 % 15.33 C
615 31-08-2016 14:00:00 24.375 C 63.0833 % 16.9 C
616 31-08-2016 15:00:00 25.09167 C 63.1667 % 17.59 C
617 31-08-2016 16:00:00 24.13333 C 70.5000 % 18.43 C
618 31-08-2016 17:00:00 26.025 C 61.8333 % 18.13 C
619 31-08-2016 18:00:00 24.99167 C 62.5833 % 17.35 C
620 31-08-2016 19:00:00 23.71667 C 63.9167 % 16.48 C
621 31-08-2016 20:00:00 22.05 C 70.8333 % 16.51 C
622 31-08-2016 21:00:00 20.76667 C 75.1667 % 16.21 C
623 31-08-2016 22:00:00 20.01667 C 77.1667 % 15.9 C
624 31-08-2016 23:00:00 19.53333 C 78.1667 % 15.63 C
625 01-09-2016 00:00:00 18.65 C 79.0000 % 14.94 C
Sensor: Nr:Datum:Temp:Feuchte:Taupunkt:
Aussen-T/F 626 01-09-2016 01:00:00 17.475 C 82.9167 % 14.54 C
627 01-09-2016 02:00:00 16.73333 C 86.7500 % 14.51 C
628 01-09-2016 03:00:00 16.55833 C 87.2500 % 14.43 C
629 01-09-2016 04:00:00 16.04167 C 88.4167 % 14.13 C
630 01-09-2016 05:00:00 15.53333 C 89.5000 % 13.81 C
631 01-09-2016 06:00:00 14.675 C 90.2500 % 13.1 C
632 01-09-2016 07:00:00 14.00833 C 92.0000 % 12.73 C
633 01-09-2016 08:00:00 14.8 C 93.1667 % 13.71 C
634 01-09-2016 09:00:00 15.9 C 92.5833 % 14.7 C
635 01-09-2016 10:00:00 17.78333 C 86.1667 % 15.44 C
636 01-09-2016 11:00:00 19.65 C 77.3333 % 15.57 C
637 01-09-2016 12:00:00 21.025 C 72.0000 % 15.78 C
638 01-09-2016 13:00:00 22.25833 C 66.0833 % 15.62 C
639 01-09-2016 14:00:00 23.825 C 60.7500 % 15.79 C
640 01-09-2016 15:00:00 24.9 C 56.0000 % 15.52 C
641 01-09-2016 16:00:00 25.775 C 53.0000 % 15.47 C
642 01-09-2016 17:00:00 25.84167 C 53.0833 % 15.56 C
643 01-09-2016 18:00:00 25.375 C 52.7500 % 15.03 C
644 01-09-2016 19:00:00 24.45833 C 56.1667 % 15.16 C
645 01-09-2016 20:00:00 22.28333 C 64.1667 % 15.19 C
646 01-09-2016 21:00:00 20.36667 C 73.8333 % 15.54 C
647 01-09-2016 22:00:00 18.875 C 80.2500 % 15.4 C
648 01-09-2016 23:00:00 18.19167 C 82.7500 % 15.21 C
649 02-09-2016 00:00:00 17.31667 C 85.0833 % 14.79 C
650 02-09-2016 01:00:00 16.3 C 87.9167 % 14.29 C
Sensor: Nr:Datum:Temp:Feuchte:Taupunkt:
Aussen-T/F 651 02-09-2016 02:00:00 15.36667 C 90.3333 % 13.79 C
652 02-09-2016 03:00:00 14.775 C 91.9167 % 13.47 C
653 02-09-2016 04:00:00 14.23333 C 93.0000 % 13.12 C
654 02-09-2016 05:00:00 13.71667 C 93.5000 % 12.69 C
655 02-09-2016 06:00:00 13.25833 C 94.0000 % 12.31 C
656 02-09-2016 07:00:00 13.23333 C 94.7500 % 12.41 C
657 02-09-2016 08:00:00 13.73333 C 95.0000 % 12.95 C
658 02-09-2016 09:00:00 14.24167 C 95.1667 % 13.48 C
659 02-09-2016 10:00:00 15.675 C 95.4167 % 14.94 C
660 02-09-2016 11:00:00 18.28333 C 88.7500 % 16.39 C
661 02-09-2016 12:00:00 21.475 C 72.5833 % 16.34 C
662 02-09-2016 13:00:00 22.68333 C 65.0000 % 15.77 C
663 02-09-2016 14:00:00 23.9 C 59.9167 % 15.64 C
664 02-09-2016 15:00:00 24.825 C 56.1667 % 15.5 C
665 02-09-2016 16:00:00 26.15833 C 53.8333 % 16.07 C
666 02-09-2016 17:00:00 26.375 C 55.7500 % 16.82 C
667 02-09-2016 18:00:00 23.81667 C 64.7500 % 16.78 C
668 02-09-2016 19:00:00 21.63333 C 67.2500 % 15.3 C
669 02-09-2016 20:00:00 20.7 C 67.4167 % 14.45 C
670 02-09-2016 21:00:00 20.025 C 70.1667 % 14.42 C
671 02-09-2016 22:00:00 19.94167 C 73.4167 % 15.05 C
672 02-09-2016 23:00:00 19.24167 C 78.5833 % 15.43 C
673 03-09-2016 00:00:00 18.35 C 82.2500 % 15.27 C
674 03-09-2016 01:00:00 17.83333 C 84.2500 % 15.14 C
675 03-09-2016 02:00:00 17.46667 C 86.3333 % 15.16 C
Sensor: Nr:Datum:Temp:Feuchte:Taupunkt:
Aussen-T/F 676 03-09-2016 03:00:00 17.26667 C 85.7500 % 14.86 C
677 03-09-2016 04:00:00 16.46667 C 87.7500 % 14.43 C
678 03-09-2016 05:00:00 15.75 C 89.0833 % 13.96 C
679 03-09-2016 06:00:00 14.70833 C 91.0000 % 13.26 C
680 03-09-2016 07:00:00 14.45 C 92.8333 % 13.31 C
681 03-09-2016 08:00:00 15.40833 C 92.7500 % 14.24 C
682 03-09-2016 09:00:00 16.55 C 90.0833 % 14.92 C
683 03-09-2016 10:00:00 18.025 C 87.6667 % 15.95 C
684 03-09-2016 11:00:00 20.85833 C 80.1667 % 17.31 C
685 03-09-2016 12:00:00 22.98333 C 69.8333 % 17.18 C
686 03-09-2016 13:00:00 24.36667 C 64.6667 % 17.28 C
687 03-09-2016 14:00:00 26.03333 C 54.6667 % 16.2 C
688 03-09-2016 15:00:00 26.90833 C 51.5000 % 16.07 C
689 03-09-2016 16:00:00 27.91667 C 48.5000 % 16.05 C
690 03-09-2016 17:00:00 29.45833 C 44.3333 % 16.04 C
691 03-09-2016 18:00:00 28.65 C 49.0000 % 16.88 C
692 03-09-2016 19:00:00 25.96667 C 56.4167 % 16.63 C
693 03-09-2016 20:00:00 22.45833 C 66.0000 % 15.79 C
694 03-09-2016 21:00:00 21.11667 C 68.8333 % 15.17 C
695 03-09-2016 22:00:00 19.51667 C 70.5000 % 14.01 C
696 03-09-2016 23:00:00 18.75833 C 73.0000 % 13.82 C
697 04-09-2016 00:00:00 18 C 75.4167 % 13.59 C
698 04-09-2016 01:00:00 16.80833 C 79.5833 % 13.26 C
699 04-09-2016 02:00:00 16.04167 C 82.4167 % 13.05 C
700 04-09-2016 03:00:00 15.875 C 84.0000 % 13.18 C
Sensor: Nr:Datum:Temp:Feuchte:Taupunkt:
Aussen-T/F 701 04-09-2016 04:00:00 16.56667 C 82.4167 % 13.56 C
702 04-09-2016 05:00:00 16.325 C 84.0833 % 13.63 C
703 04-09-2016 06:00:00 16.65833 C 82.6667 % 13.7 C
704 04-09-2016 07:00:00 16.93333 C 82.3333 % 13.9 C
705 04-09-2016 08:00:00 16.94167 C 89.3333 % 15.17 C
706 04-09-2016 09:00:00 16.75 C 93.2500 % 15.65 C
707 04-09-2016 10:00:00 16.95 C 94.5000 % 16.06 C
708 04-09-2016 11:00:00 17.875 C 92.8333 % 16.7 C
709 04-09-2016 12:00:00 19.85 C 86.1667 % 17.47 C
710 04-09-2016 13:00:00 19.89167 C 87.5833 % 17.77 C
711 04-09-2016 14:00:00 20.44167 C 87.4167 % 18.28 C
712 04-09-2016 15:00:00 20.59167 C 84.0000 % 17.79 C
713 04-09-2016 16:00:00 21.40833 C 81.0833 % 18.03 C
714 04-09-2016 17:00:00 21.20833 C 74.0833 % 16.41 C
715 04-09-2016 18:00:00 20.69167 C 65.5833 % 14.02 C
716 04-09-2016 19:00:00 19.65 C 67.0833 % 13.38 C
717 04-09-2016 20:00:00 18.95833 C 68.7500 % 13.09 C
718 04-09-2016 21:00:00 18.28333 C 73.1667 % 13.4 C
719 04-09-2016 22:00:00 17.16667 C 80.6667 % 13.82 C
720 04-09-2016 23:00:00 16.61667 C 83.3333 % 13.78 C
721 05-09-2016 00:00:00 16.24167 C 85.0833 % 13.73 C
722 05-09-2016 01:00:00 16.04167 C 84.8333 % 13.49 C
723 05-09-2016 02:00:00 15.39167 C 87.4167 % 13.31 C
724 05-09-2016 03:00:00 15.89167 C 85.5833 % 13.48 C
725 05-09-2016 04:00:00 15.45833 C 86.0833 % 13.14 C
Sensor: Nr:Datum:Temp:Feuchte:Taupunkt:
Aussen-T/F 726 05-09-2016 05:00:00 15.04167 C 88.9167 % 13.23 C
727 05-09-2016 06:00:00 15.3 C 88.2500 % 13.37 C
728 05-09-2016 07:00:00 15.65 C 87.7500 % 13.63 C
729 05-09-2016 08:00:00 16 C 87.6667 % 13.96 C
730 05-09-2016 09:00:00 16.58333 C 87.7500 % 14.54 C
731 05-09-2016 10:00:00 16.86667 C 88.3333 % 14.93 C
732 05-09-2016 11:00:00 18.36667 C 81.0833 % 15.07 C
733 05-09-2016 12:00:00 19.30833 C 74.3333 % 14.63 C
734 05-09-2016 13:00:00 20.13333 C 68.0000 % 14.04 C
735 05-09-2016 14:00:00 20.675 C 65.8333 % 14.06 C
736 05-09-2016 15:00:00 21.08333 C 64.4167 % 14.11 C
737 05-09-2016 16:00:00 22.04167 C 61.5833 % 14.32 C
738 05-09-2016 17:00:00 22.68333 C 57.5000 % 13.87 C
739 05-09-2016 18:00:00 22.93333 C 59.4167 % 14.61 C
740 05-09-2016 19:00:00 20.375 C 72.8333 % 15.34 C
741 05-09-2016 20:00:00 18.1 C 78.1667 % 14.24 C
742 05-09-2016 21:00:00 16.4 C 84.3333 % 13.75 C
743 05-09-2016 22:00:00 15.04167 C 87.8333 % 13.04 C
744 05-09-2016 23:00:00 14.08333 C 90.2500 % 12.51 C

Maximal/Minimal-Werte vom 06.08.2016 - 05.09.2016

Sensor Min Max Avg
Temp
(Aussen-T/F)
6.8 °C
11-08-2016  06:55:00
35 °C
27-08-2016  17:10:00
18.73 °C
Feuchte
(Aussen-T/F)
34 %
16-08-2016  17:45:00
97 %
06-08-2016  07:40:00
79.08 %
Taupunkt
(Aussen-T/F)
6.16 C
11-08-2016  06:00:00
23.37 C
27-08-2016  13:00:00
14.65 C

Die Daten stammen von einer Davis Vantage Pro 2 Wetter-Station und werden unter Linux mit der Software wview2wettercgi und aufbereitet. Alle Angaben erfolgen ohne Gewähr für ihre Vollständigkeit oder Richtigkeit.
Kontakt: Rainer Krienke krienke@uni-koblenz.de . Meine Webseiten an der Uni Koblenz oder privat.
Version: $Revision: 0.78 $